Amber, Washington
Current Conditions -  °F | °C
As of 4:58 PM on Wednesday 22 Oct 2014 (Local Time) from KSKA Reporting Station
Light Rain Light Rain  
Wind Chill: 52°   Ceiling: 4400
Heat Index: 52°   Visibility: 10mi
Dew Point: 50°   Wind: 6mph
Humidity: 92%   Direction: 80°E
Pressure: 29.81"   Gusts: NA
Location:  47.411°N, 117.628°W
Report Text: KSKA 222358Z AUTO 08005KT 10SM -RA BKN044 OVC055 11/10 A2981 RMK AO2 SLP101 P0002 60006 T01120100 10143 20112 401430045 58013
Loading
Personal Weather Stations






























Interactive Weather Map
Tropical Storm Tracking
New forecast layout! Learn more

10-Day Weather Forecast

Advertisements
Track Severe Weather on mobile